sensor_id;sensor_type;location;lat;lon;timestamp;P1;durP1;ratioP1;P2;durP2;ratioP2
16667;SDS011;8447;52.630;4.734;2024-02-21T00:01:57;14.57;;;2.43;;
16667;SDS011;8447;52.630;4.734;2024-02-21T00:04:23;13.07;;;2.50;;
16667;SDS011;8447;52.630;4.734;2024-02-21T00:06:50;13.50;;;3.00;;
16667;SDS011;8447;52.630;4.734;2024-02-21T00:09:18;14.30;;;2.67;;
16667;SDS011;8447;52.630;4.734;2024-02-21T00:11:45;14.47;;;2.83;;
16667;SDS011;8447;52.630;4.734;2024-02-21T00:14:12;13.07;;;2.17;;
16667;SDS011;8447;52.630;4.734;2024-02-21T00:16:39;9.03;;;2.70;;
16667;SDS011;8447;52.630;4.734;2024-02-21T00:19:05;13.73;;;2.50;;
16667;SDS011;8447;52.630;4.734;2024-02-21T00:21:31;9.47;;;2.97;;
16667;SDS011;8447;52.630;4.734;2024-02-21T00:23:58;15.90;;;2.90;;
16667;SDS011;8447;52.630;4.734;2024-02-21T00:26:25;12.97;;;2.13;;
16667;SDS011;8447;52.630;4.734;2024-02-21T00:28:52;11.30;;;2.33;;
16667;SDS011;8447;52.630;4.734;2024-02-21T00:31:19;12.73;;;2.70;;
16667;SDS011;8447;52.630;4.734;2024-02-21T00:33:45;19.03;;;3.17;;
16667;SDS011;8447;52.630;4.734;2024-02-21T00:36:12;16.17;;;2.83;;
16667;SDS011;8447;52.630;4.734;2024-02-21T00:38:38;11.30;;;2.10;;
16667;SDS011;8447;52.630;4.734;2024-02-21T00:41:05;15.80;;;3.27;;
16667;SDS011;8447;52.630;4.734;2024-02-21T00:43:32;13.47;;;3.37;;
16667;SDS011;8447;52.630;4.734;2024-02-21T00:45:59;13.80;;;2.43;;
16667;SDS011;8447;52.630;4.734;2024-02-21T00:48:25;15.63;;;2.73;;
16667;SDS011;8447;52.630;4.734;2024-02-21T00:50:51;13.60;;;2.33;;
16667;SDS011;8447;52.630;4.734;2024-02-21T00:53:18;11.83;;;2.40;;
16667;SDS011;8447;52.630;4.734;2024-02-21T00:55:44;13.97;;;3.47;;
16667;SDS011;8447;52.630;4.734;2024-02-21T00:58:11;13.80;;;2.33;;
16667;SDS011;8447;52.630;4.734;2024-02-21T01:00:38;14.10;;;2.70;;
16667;SDS011;8447;52.630;4.734;2024-02-21T01:03:05;11.67;;;2.83;;
16667;SDS011;8447;52.630;4.734;2024-02-21T01:05:31;14.73;;;2.80;;
16667;SDS011;8447;52.630;4.734;2024-02-21T01:07:57;13.90;;;2.90;;
16667;SDS011;8447;52.630;4.734;2024-02-21T01:10:24;15.20;;;3.30;;
16667;SDS011;8447;52.630;4.734;2024-02-21T01:12:50;8.90;;;2.13;;
16667;SDS011;8447;52.630;4.734;2024-02-21T01:15:17;14.33;;;2.80;;
16667;SDS011;8447;52.630;4.734;2024-02-21T01:17:44;13.27;;;3.20;;
16667;SDS011;8447;52.630;4.734;2024-02-21T01:20:11;15.97;;;3.50;;
16667;SDS011;8447;52.630;4.734;2024-02-21T01:22:37;14.57;;;3.23;;
16667;SDS011;8447;52.630;4.734;2024-02-21T01:25:04;11.70;;;2.20;;
16667;SDS011;8447;52.630;4.734;2024-02-21T01:27:31;21.73;;;2.87;;
16667;SDS011;8447;52.630;4.734;2024-02-21T01:29:57;8.73;;;2.27;;
16667;SDS011;8447;52.630;4.734;2024-02-21T01:32:23;10.90;;;2.73;;
16667;SDS011;8447;52.630;4.734;2024-02-21T01:34:51;12.70;;;2.70;;
16667;SDS011;8447;52.630;4.734;2024-02-21T01:37:17;12.10;;;2.80;;
16667;SDS011;8447;52.630;4.734;2024-02-21T01:39:44;15.67;;;2.93;;
16667;SDS011;8447;52.630;4.734;2024-02-21T01:42:10;13.60;;;3.60;;
16667;SDS011;8447;52.630;4.734;2024-02-21T01:44:37;9.77;;;2.67;;
16667;SDS011;8447;52.630;4.734;2024-02-21T01:47:03;19.13;;;2.97;;
16667;SDS011;8447;52.630;4.734;2024-02-21T01:49:30;14.50;;;3.63;;
16667;SDS011;8447;52.630;4.734;2024-02-21T01:51:58;11.63;;;2.60;;
16667;SDS011;8447;52.630;4.734;2024-02-21T01:54:25;13.30;;;2.80;;
16667;SDS011;8447;52.630;4.734;2024-02-21T01:56:53;8.93;;;2.50;;
16667;SDS011;8447;52.630;4.734;2024-02-21T01:59:20;11.93;;;2.23;;
16667;SDS011;8447;52.630;4.734;2024-02-21T02:01:47;17.00;;;3.30;;
16667;SDS011;8447;52.630;4.734;2024-02-21T02:04:13;23.20;;;2.80;;
16667;SDS011;8447;52.630;4.734;2024-02-21T02:06:40;10.40;;;2.57;;
16667;SDS011;8447;52.630;4.734;2024-02-21T02:09:08;10.73;;;2.53;;
16667;SDS011;8447;52.630;4.734;2024-02-21T02:11:34;15.53;;;2.80;;
16667;SDS011;8447;52.630;4.734;2024-02-21T02:14:01;10.33;;;1.83;;
16667;SDS011;8447;52.630;4.734;2024-02-21T02:16:28;9.57;;;2.10;;
16667;SDS011;8447;52.630;4.734;2024-02-21T02:18:54;11.40;;;2.20;;
16667;SDS011;8447;52.630;4.734;2024-02-21T02:21:23;19.23;;;2.33;;
16667;SDS011;8447;52.630;4.734;2024-02-21T02:23:52;14.57;;;2.30;;
16667;SDS011;8447;52.630;4.734;2024-02-21T02:26:18;8.97;;;2.13;;
16667;SDS011;8447;52.630;4.734;2024-02-21T02:28:44;8.53;;;2.00;;
16667;SDS011;8447;52.630;4.734;2024-02-21T02:31:11;11.43;;;2.53;;
16667;SDS011;8447;52.630;4.734;2024-02-21T02:33:37;13.00;;;2.60;;
16667;SDS011;8447;52.630;4.734;2024-02-21T02:36:04;17.97;;;2.07;;
16667;SDS011;8447;52.630;4.734;2024-02-21T02:38:30;12.77;;;2.43;;
16667;SDS011;8447;52.630;4.734;2024-02-21T02:40:58;14.53;;;2.40;;
16667;SDS011;8447;52.630;4.734;2024-02-21T02:43:25;13.83;;;2.80;;
16667;SDS011;8447;52.630;4.734;2024-02-21T02:45:51;16.63;;;3.00;;
16667;SDS011;8447;52.630;4.734;2024-02-21T02:48:17;15.07;;;2.70;;
16667;SDS011;8447;52.630;4.734;2024-02-21T02:50:44;16.93;;;3.30;;
16667;SDS011;8447;52.630;4.734;2024-02-21T02:53:11;17.87;;;3.43;;
16667;SDS011;8447;52.630;4.734;2024-02-21T02:55:38;12.43;;;2.60;;
16667;SDS011;8447;52.630;4.734;2024-02-21T02:58:05;11.60;;;3.17;;
16667;SDS011;8447;52.630;4.734;2024-02-21T03:00:32;16.70;;;2.67;;
16667;SDS011;8447;52.630;4.734;2024-02-21T03:03:01;15.13;;;2.53;;
16667;SDS011;8447;52.630;4.734;2024-02-21T03:05:29;13.60;;;2.77;;
16667;SDS011;8447;52.630;4.734;2024-02-21T03:07:55;14.63;;;3.20;;
16667;SDS011;8447;52.630;4.734;2024-02-21T03:10:21;15.70;;;3.33;;
16667;SDS011;8447;52.630;4.734;2024-02-21T03:12:48;16.47;;;2.63;;
16667;SDS011;8447;52.630;4.734;2024-02-21T03:15:14;13.50;;;3.00;;
16667;SDS011;8447;52.630;4.734;2024-02-21T03:17:41;13.70;;;2.27;;
16667;SDS011;8447;52.630;4.734;2024-02-21T03:20:07;16.53;;;2.30;;
16667;SDS011;8447;52.630;4.734;2024-02-21T03:22:35;13.90;;;2.53;;
16667;SDS011;8447;52.630;4.734;2024-02-21T03:25:01;16.13;;;2.33;;
16667;SDS011;8447;52.630;4.734;2024-02-21T03:27:27;11.33;;;2.57;;
16667;SDS011;8447;52.630;4.734;2024-02-21T03:29:54;15.70;;;2.57;;
16667;SDS011;8447;52.630;4.734;2024-02-21T03:32:21;19.90;;;2.37;;
16667;SDS011;8447;52.630;4.734;2024-02-21T03:34:48;10.47;;;2.03;;
16667;SDS011;8447;52.630;4.734;2024-02-21T03:37:14;19.33;;;3.30;;
16667;SDS011;8447;52.630;4.734;2024-02-21T03:39:41;11.20;;;1.57;;
16667;SDS011;8447;52.630;4.734;2024-02-21T03:42:08;17.47;;;2.93;;
16667;SDS011;8447;52.630;4.734;2024-02-21T03:44:34;10.50;;;2.13;;
16667;SDS011;8447;52.630;4.734;2024-02-21T03:47:00;12.07;;;2.23;;
16667;SDS011;8447;52.630;4.734;2024-02-21T03:49:28;9.33;;;2.30;;
16667;SDS011;8447;52.630;4.734;2024-02-21T03:51:55;8.43;;;2.40;;
16667;SDS011;8447;52.630;4.734;2024-02-21T03:54:21;11.63;;;2.63;;
16667;SDS011;8447;52.630;4.734;2024-02-21T03:56:48;11.00;;;2.60;;
16667;SDS011;8447;52.630;4.734;2024-02-21T03:59:14;14.67;;;2.50;;
16667;SDS011;8447;52.630;4.734;2024-02-21T04:01:40;12.17;;;2.83;;
16667;SDS011;8447;52.630;4.734;2024-02-21T04:04:07;13.93;;;2.43;;
16667;SDS011;8447;52.630;4.734;2024-02-21T04:06:35;12.20;;;2.60;;
16667;SDS011;8447;52.630;4.734;2024-02-21T04:09:01;13.10;;;2.70;;
16667;SDS011;8447;52.630;4.734;2024-02-21T04:11:28;17.03;;;2.67;;
16667;SDS011;8447;52.630;4.734;2024-02-21T04:13:54;16.47;;;2.57;;
16667;SDS011;8447;52.630;4.734;2024-02-21T04:16:21;13.30;;;3.10;;
16667;SDS011;8447;52.630;4.734;2024-02-21T04:18:47;15.83;;;2.70;;
16667;SDS011;8447;52.630;4.734;2024-02-21T04:21:14;11.50;;;2.00;;
16667;SDS011;8447;52.630;4.734;2024-02-21T04:23:41;12.40;;;3.07;;
16667;SDS011;8447;52.630;4.734;2024-02-21T04:26:08;17.07;;;3.10;;
16667;SDS011;8447;52.630;4.734;2024-02-21T04:28:35;25.13;;;3.40;;
16667;SDS011;8447;52.630;4.734;2024-02-21T04:31:01;15.93;;;3.03;;
16667;SDS011;8447;52.630;4.734;2024-02-21T04:33:27;19.07;;;3.40;;
16667;SDS011;8447;52.630;4.734;2024-02-21T04:35:54;16.10;;;2.73;;
16667;SDS011;8447;52.630;4.734;2024-02-21T04:38:20;14.77;;;2.80;;
16667;SDS011;8447;52.630;4.734;2024-02-21T04:40:48;18.90;;;3.07;;
16667;SDS011;8447;52.630;4.734;2024-02-21T04:43:14;18.50;;;3.73;;
16667;SDS011;8447;52.630;4.734;2024-02-21T04:45:41;23.07;;;3.43;;
16667;SDS011;8447;52.630;4.734;2024-02-21T04:48:07;18.83;;;2.80;;
16667;SDS011;8447;52.630;4.734;2024-02-21T04:50:34;26.33;;;4.00;;
16667;SDS011;8447;52.630;4.734;2024-02-21T04:53:00;13.27;;;2.90;;
16667;SDS011;8447;52.630;4.734;2024-02-21T04:55:26;13.47;;;2.57;;
16667;SDS011;8447;52.630;4.734;2024-02-21T04:57:54;13.83;;;2.70;;
16667;SDS011;8447;52.630;4.734;2024-02-21T05:00:20;21.10;;;2.63;;
16667;SDS011;8447;52.630;4.734;2024-02-21T05:02:47;19.83;;;3.03;;
16667;SDS011;8447;52.630;4.734;2024-02-21T05:05:13;13.30;;;2.70;;
16667;SDS011;8447;52.630;4.734;2024-02-21T05:07:42;12.20;;;2.63;;
16667;SDS011;8447;52.630;4.734;2024-02-21T05:10:08;14.93;;;2.87;;
16667;SDS011;8447;52.630;4.734;2024-02-21T05:12:35;10.73;;;2.60;;
16667;SDS011;8447;52.630;4.734;2024-02-21T05:15:03;12.83;;;2.37;;
16667;SDS011;8447;52.630;4.734;2024-02-21T05:17:29;19.13;;;2.80;;
16667;SDS011;8447;52.630;4.734;2024-02-21T05:19:56;14.80;;;2.53;;
16667;SDS011;8447;52.630;4.734;2024-02-21T05:22:22;7.73;;;2.30;;
16667;SDS011;8447;52.630;4.734;2024-02-21T05:24:48;15.13;;;2.47;;
16667;SDS011;8447;52.630;4.734;2024-02-21T05:27:15;20.07;;;2.77;;
16667;SDS011;8447;52.630;4.734;2024-02-21T05:29:41;19.63;;;2.63;;
16667;SDS011;8447;52.630;4.734;2024-02-21T05:32:09;15.03;;;2.53;;
16667;SDS011;8447;52.630;4.734;2024-02-21T05:34:35;9.17;;;2.10;;
16667;SDS011;8447;52.630;4.734;2024-02-21T05:37:01;11.60;;;2.40;;
16667;SDS011;8447;52.630;4.734;2024-02-21T05:39:28;9.53;;;2.13;;
16667;SDS011;8447;52.630;4.734;2024-02-21T05:41:54;12.40;;;2.30;;
16667;SDS011;8447;52.630;4.734;2024-02-21T05:44:20;9.10;;;2.17;;
16667;SDS011;8447;52.630;4.734;2024-02-21T05:46:47;13.83;;;2.80;;
16667;SDS011;8447;52.630;4.734;2024-02-21T05:49:15;14.03;;;2.40;;
16667;SDS011;8447;52.630;4.734;2024-02-21T05:51:41;6.83;;;1.90;;
16667;SDS011;8447;52.630;4.734;2024-02-21T05:54:08;12.80;;;2.60;;
16667;SDS011;8447;52.630;4.734;2024-02-21T05:56:34;16.13;;;2.93;;
16667;SDS011;8447;52.630;4.734;2024-02-21T05:59:00;14.37;;;2.80;;
16667;SDS011;8447;52.630;4.734;2024-02-21T06:01:27;12.27;;;2.50;;
16667;SDS011;8447;52.630;4.734;2024-02-21T06:03:53;9.07;;;2.30;;
16667;SDS011;8447;52.630;4.734;2024-02-21T06:06:21;13.07;;;3.37;;
16667;SDS011;8447;52.630;4.734;2024-02-21T06:08:48;9.40;;;2.43;;
16667;SDS011;8447;52.630;4.734;2024-02-21T06:11:14;15.37;;;2.90;;
16667;SDS011;8447;52.630;4.734;2024-02-21T06:13:43;13.13;;;2.97;;
16667;SDS011;8447;52.630;4.734;2024-02-21T06:16:10;12.67;;;2.70;;
16667;SDS011;8447;52.630;4.734;2024-02-21T06:18:36;8.57;;;2.93;;
16667;SDS011;8447;52.630;4.734;2024-02-21T06:21:03;14.80;;;3.53;;
16667;SDS011;8447;52.630;4.734;2024-02-21T06:23:31;8.33;;;2.07;;
16667;SDS011;8447;52.630;4.734;2024-02-21T06:25:57;11.07;;;3.23;;
16667;SDS011;8447;52.630;4.734;2024-02-21T06:28:23;11.53;;;3.00;;
16667;SDS011;8447;52.630;4.734;2024-02-21T06:30:50;9.33;;;2.97;;
16667;SDS011;8447;52.630;4.734;2024-02-21T06:33:16;9.53;;;3.37;;
16667;SDS011;8447;52.630;4.734;2024-02-21T06:35:43;12.33;;;3.50;;
16667;SDS011;8447;52.630;4.734;2024-02-21T06:38:12;12.40;;;3.60;;
16667;SDS011;8447;52.630;4.734;2024-02-21T06:40:40;9.20;;;2.97;;
16667;SDS011;8447;52.630;4.734;2024-02-21T06:43:06;7.23;;;2.63;;
16667;SDS011;8447;52.630;4.734;2024-02-21T06:45:33;4.10;;;1.00;;
16667;SDS011;8447;52.630;4.734;2024-02-21T06:47:59;8.70;;;3.00;;
16667;SDS011;8447;52.630;4.734;2024-02-21T06:50:25;6.97;;;2.43;;
16667;SDS011;8447;52.630;4.734;2024-02-21T06:52:52;9.20;;;2.97;;
16667;SDS011;8447;52.630;4.734;2024-02-21T06:55:18;12.90;;;2.50;;
16667;SDS011;8447;52.630;4.734;2024-02-21T06:57:46;12.43;;;3.63;;
16667;SDS011;8447;52.630;4.734;2024-02-21T07:00:13;9.57;;;3.10;;
16667;SDS011;8447;52.630;4.734;2024-02-21T07:02:41;12.93;;;3.63;;
16667;SDS011;8447;52.630;4.734;2024-02-21T07:05:07;12.87;;;2.90;;
16667;SDS011;8447;52.630;4.734;2024-02-21T07:07:34;11.80;;;2.87;;
16667;SDS011;8447;52.630;4.734;2024-02-21T07:10:01;12.43;;;3.30;;
16667;SDS011;8447;52.630;4.734;2024-02-21T07:12:27;11.37;;;2.93;;
16667;SDS011;8447;52.630;4.734;2024-02-21T07:14:55;11.47;;;3.13;;
16667;SDS011;8447;52.630;4.734;2024-02-21T07:17:21;4.40;;;1.83;;
16667;SDS011;8447;52.630;4.734;2024-02-21T07:19:47;12.87;;;2.90;;
16667;SDS011;8447;52.630;4.734;2024-02-21T07:22:14;10.17;;;3.20;;
16667;SDS011;8447;52.630;4.734;2024-02-21T07:24:40;5.77;;;1.20;;
16667;SDS011;8447;52.630;4.734;2024-02-21T07:27:07;10.07;;;3.43;;
16667;SDS011;8447;52.630;4.734;2024-02-21T07:29:33;10.47;;;4.20;;
16667;SDS011;8447;52.630;4.734;2024-02-21T07:32:01;7.27;;;3.07;;
16667;SDS011;8447;52.630;4.734;2024-02-21T07:34:27;7.20;;;4.40;;
16667;SDS011;8447;52.630;4.734;2024-02-21T07:36:54;17.20;;;4.40;;
16667;SDS011;8447;52.630;4.734;2024-02-21T07:39:21;7.20;;;2.70;;
16667;SDS011;8447;52.630;4.734;2024-02-21T07:41:48;9.70;;;3.73;;
16667;SDS011;8447;52.630;4.734;2024-02-21T07:44:14;9.60;;;3.67;;
16667;SDS011;8447;52.630;4.734;2024-02-21T07:46:40;6.43;;;3.43;;
16667;SDS011;8447;52.630;4.734;2024-02-21T07:49:08;6.17;;;3.30;;
16667;SDS011;8447;52.630;4.734;2024-02-21T07:51:34;9.57;;;3.67;;
16667;SDS011;8447;52.630;4.734;2024-02-21T07:54:01;4.37;;;2.80;;
16667;SDS011;8447;52.630;4.734;2024-02-21T07:56:29;10.47;;;3.97;;
16667;SDS011;8447;52.630;4.734;2024-02-21T07:58:56;9.07;;;4.00;;
16667;SDS011;8447;52.630;4.734;2024-02-21T08:01:22;7.43;;;2.40;;
16667;SDS011;8447;52.630;4.734;2024-02-21T08:03:48;11.87;;;4.17;;
16667;SDS011;8447;52.630;4.734;2024-02-21T08:06:16;9.77;;;3.47;;
16667;SDS011;8447;52.630;4.734;2024-02-21T08:08:42;9.90;;;3.37;;
16667;SDS011;8447;52.630;4.734;2024-02-21T08:11:09;7.50;;;3.23;;
16667;SDS011;8447;52.630;4.734;2024-02-21T08:13:35;7.27;;;3.37;;
16667;SDS011;8447;52.630;4.734;2024-02-21T08:16:02;7.83;;;3.00;;
16667;SDS011;8447;52.630;4.734;2024-02-21T08:18:28;6.97;;;3.30;;
16667;SDS011;8447;52.630;4.734;2024-02-21T08:20:54;7.30;;;4.07;;
16667;SDS011;8447;52.630;4.734;2024-02-21T08:23:22;6.07;;;3.70;;
16667;SDS011;8447;52.630;4.734;2024-02-21T08:25:49;8.70;;;3.90;;
16667;SDS011;8447;52.630;4.734;2024-02-21T08:28:15;9.93;;;4.07;;
16667;SDS011;8447;52.630;4.734;2024-02-21T08:30:42;9.27;;;3.67;;
16667;SDS011;8447;52.630;4.734;2024-02-21T08:33:12;11.33;;;3.53;;
16667;SDS011;8447;52.630;4.734;2024-02-21T08:35:39;7.53;;;3.90;;
16667;SDS011;8447;52.630;4.734;2024-02-21T08:38:05;9.97;;;4.30;;
16667;SDS011;8447;52.630;4.734;2024-02-21T08:40:33;7.67;;;4.17;;
16667;SDS011;8447;52.630;4.734;2024-02-21T08:43:00;8.60;;;4.67;;
16667;SDS011;8447;52.630;4.734;2024-02-21T08:45:26;10.83;;;3.80;;
16667;SDS011;8447;52.630;4.734;2024-02-21T08:47:53;11.93;;;4.87;;
16667;SDS011;8447;52.630;4.734;2024-02-21T08:50:19;7.13;;;3.97;;
16667;SDS011;8447;52.630;4.734;2024-02-21T08:52:45;10.30;;;4.13;;
16667;SDS011;8447;52.630;4.734;2024-02-21T08:55:12;10.60;;;5.23;;
16667;SDS011;8447;52.630;4.734;2024-02-21T08:57:39;6.77;;;3.93;;
16667;SDS011;8447;52.630;4.734;2024-02-21T09:00:06;12.70;;;6.50;;
16667;SDS011;8447;52.630;4.734;2024-02-21T09:02:35;9.43;;;4.97;;
16667;SDS011;8447;52.630;4.734;2024-02-21T09:05:01;7.00;;;4.33;;
16667;SDS011;8447;52.630;4.734;2024-02-21T09:07:28;7.43;;;5.37;;
16667;SDS011;8447;52.630;4.734;2024-02-21T09:09:54;11.17;;;5.57;;
16667;SDS011;8447;52.630;4.734;2024-02-21T09:12:20;5.90;;;4.50;;
16667;SDS011;8447;52.630;4.734;2024-02-21T09:14:48;12.33;;;5.93;;
16667;SDS011;8447;52.630;4.734;2024-02-21T09:17:15;11.40;;;6.17;;
16667;SDS011;8447;52.630;4.734;2024-02-21T09:19:42;10.40;;;5.80;;
16667;SDS011;8447;52.630;4.734;2024-02-21T09:22:08;10.33;;;5.47;;
16667;SDS011;8447;52.630;4.734;2024-02-21T09:24:35;9.93;;;5.13;;
16667;SDS011;8447;52.630;4.734;2024-02-21T09:27:01;9.10;;;5.00;;
16667;SDS011;8447;52.630;4.734;2024-02-21T09:29:27;5.07;;;4.50;;
16667;SDS011;8447;52.630;4.734;2024-02-21T09:31:55;7.87;;;5.03;;
16667;SDS011;8447;52.630;4.734;2024-02-21T09:34:21;6.63;;;4.87;;
16667;SDS011;8447;52.630;4.734;2024-02-21T09:36:48;5.17;;;4.33;;
16667;SDS011;8447;52.630;4.734;2024-02-21T09:39:14;5.90;;;4.07;;
16667;SDS011;8447;52.630;4.734;2024-02-21T09:41:45;8.73;;;5.30;;
16667;SDS011;8447;52.630;4.734;2024-02-21T09:44:11;7.03;;;4.50;;
16667;SDS011;8447;52.630;4.734;2024-02-21T09:46:40;6.17;;;4.50;;
16667;SDS011;8447;52.630;4.734;2024-02-21T09:49:13;11.17;;;4.17;;
16667;SDS011;8447;52.630;4.734;2024-02-21T09:51:43;8.83;;;4.97;;
16667;SDS011;8447;52.630;4.734;2024-02-21T09:54:10;7.10;;;4.70;;
16667;SDS011;8447;52.630;4.734;2024-02-21T09:56:36;9.73;;;5.90;;
16667;SDS011;8447;52.630;4.734;2024-02-21T09:59:03;11.27;;;5.93;;
16667;SDS011;8447;52.630;4.734;2024-02-21T10:01:30;7.80;;;5.60;;
16667;SDS011;8447;52.630;4.734;2024-02-21T10:03:57;11.20;;;5.73;;
16667;SDS011;8447;52.630;4.734;2024-02-21T10:06:25;8.30;;;5.70;;
16667;SDS011;8447;52.630;4.734;2024-02-21T10:08:52;10.47;;;6.67;;
16667;SDS011;8447;52.630;4.734;2024-02-21T10:11:22;14.13;;;6.50;;
16667;SDS011;8447;52.630;4.734;2024-02-21T10:13:48;12.13;;;6.80;;
16667;SDS011;8447;52.630;4.734;2024-02-21T10:16:15;10.50;;;7.40;;
16667;SDS011;8447;52.630;4.734;2024-02-21T10:18:41;14.43;;;7.57;;
16667;SDS011;8447;52.630;4.734;2024-02-21T10:21:08;10.83;;;6.80;;
16667;SDS011;8447;52.630;4.734;2024-02-21T10:23:42;11.90;;;7.67;;
16667;SDS011;8447;52.630;4.734;2024-02-21T10:26:08;10.50;;;6.90;;
16667;SDS011;8447;52.630;4.734;2024-02-21T10:28:35;11.07;;;7.87;;
16667;SDS011;8447;52.630;4.734;2024-02-21T10:31:01;12.60;;;7.53;;
16667;SDS011;8447;52.630;4.734;2024-02-21T10:33:27;8.83;;;6.20;;
16667;SDS011;8447;52.630;4.734;2024-02-21T10:36:05;14.73;;;7.10;;
16667;SDS011;8447;52.630;4.734;2024-02-21T10:38:31;8.33;;;5.43;;
16667;SDS011;8447;52.630;4.734;2024-02-21T10:41:00;9.53;;;6.87;;
16667;SDS011;8447;52.630;4.734;2024-02-21T10:43:28;9.30;;;6.67;;
16667;SDS011;8447;52.630;4.734;2024-02-21T10:45:56;10.03;;;6.97;;
16667;SDS011;8447;52.630;4.734;2024-02-21T10:48:24;7.23;;;6.17;;
16667;SDS011;8447;52.630;4.734;2024-02-21T10:50:56;8.60;;;5.73;;
16667;SDS011;8447;52.630;4.734;2024-02-21T10:53:29;9.13;;;6.43;;
16667;SDS011;8447;52.630;4.734;2024-02-21T10:56:15;8.63;;;6.40;;
16667;SDS011;8447;52.630;4.734;2024-02-21T10:58:43;6.03;;;5.20;;
16667;SDS011;8447;52.630;4.734;2024-02-21T11:01:10;10.97;;;5.70;;
16667;SDS011;8447;52.630;4.734;2024-02-21T11:03:37;9.10;;;5.70;;
16667;SDS011;8447;52.630;4.734;2024-02-21T11:06:04;8.97;;;6.43;;
16667;SDS011;8447;52.630;4.734;2024-02-21T11:08:31;6.63;;;5.47;;
16667;SDS011;8447;52.630;4.734;2024-02-21T11:10:58;8.90;;;5.97;;
16667;SDS011;8447;52.630;4.734;2024-02-21T11:13:31;9.17;;;6.13;;
16667;SDS011;8447;52.630;4.734;2024-02-21T11:16:05;8.67;;;5.93;;
16667;SDS011;8447;52.630;4.734;2024-02-21T11:18:32;9.87;;;5.87;;
16667;SDS011;8447;52.630;4.734;2024-02-21T11:20:58;7.53;;;5.10;;
16667;SDS011;8447;52.630;4.734;2024-02-21T11:23:25;5.50;;;4.33;;
16667;SDS011;8447;52.630;4.734;2024-02-21T11:25:52;7.27;;;5.63;;
16667;SDS011;8447;52.630;4.734;2024-02-21T11:28:25;7.47;;;4.83;;
16667;SDS011;8447;52.630;4.734;2024-02-21T11:30:52;9.87;;;5.70;;
16667;SDS011;8447;52.630;4.734;2024-02-21T11:33:20;8.93;;;6.17;;
16667;SDS011;8447;52.630;4.734;2024-02-21T11:35:48;6.60;;;3.73;;
16667;SDS011;8447;52.630;4.734;2024-02-21T11:38:14;6.87;;;4.90;;
16667;SDS011;8447;52.630;4.734;2024-02-21T11:40:44;10.27;;;6.27;;
16667;SDS011;8447;52.630;4.734;2024-02-21T11:43:11;7.00;;;5.43;;
16667;SDS011;8447;52.630;4.734;2024-02-21T11:45:37;8.93;;;6.07;;
16667;SDS011;8447;52.630;4.734;2024-02-21T11:48:06;9.07;;;5.67;;
16667;SDS011;8447;52.630;4.734;2024-02-21T11:50:34;7.03;;;5.23;;
16667;SDS011;8447;52.630;4.734;2024-02-21T11:53:00;10.97;;;6.60;;
16667;SDS011;8447;52.630;4.734;2024-02-21T11:55:26;8.57;;;6.27;;
16667;SDS011;8447;52.630;4.734;2024-02-21T11:57:53;6.33;;;5.20;;
16667;SDS011;8447;52.630;4.734;2024-02-21T12:00:19;7.43;;;5.57;;
16667;SDS011;8447;52.630;4.734;2024-02-21T12:02:46;4.77;;;3.60;;
16667;SDS011;8447;52.630;4.734;2024-02-21T12:05:14;5.93;;;4.80;;
16667;SDS011;8447;52.630;4.734;2024-02-21T12:07:40;6.70;;;4.83;;
16667;SDS011;8447;52.630;4.734;2024-02-21T12:10:07;9.23;;;5.67;;
16667;SDS011;8447;52.630;4.734;2024-02-21T12:12:35;8.27;;;5.70;;
16667;SDS011;8447;52.630;4.734;2024-02-21T12:15:03;7.03;;;5.37;;
16667;SDS011;8447;52.630;4.734;2024-02-21T12:17:29;8.27;;;5.53;;
16667;SDS011;8447;52.630;4.734;2024-02-21T12:19:56;11.30;;;5.57;;
16667;SDS011;8447;52.630;4.734;2024-02-21T12:22:24;10.67;;;5.60;;
16667;SDS011;8447;52.630;4.734;2024-02-21T12:24:51;7.47;;;5.20;;
16667;SDS011;8447;52.630;4.734;2024-02-21T12:27:17;8.00;;;5.60;;
16667;SDS011;8447;52.630;4.734;2024-02-21T12:29:43;4.30;;;3.90;;
16667;SDS011;8447;52.630;4.734;2024-02-21T12:32:10;7.10;;;5.53;;
16667;SDS011;8447;52.630;4.734;2024-02-21T12:34:36;9.73;;;6.10;;
16667;SDS011;8447;52.630;4.734;2024-02-21T12:37:03;7.30;;;5.83;;
16667;SDS011;8447;52.630;4.734;2024-02-21T12:39:31;6.80;;;5.30;;
16667;SDS011;8447;52.630;4.734;2024-02-21T12:41:58;8.47;;;5.07;;
16667;SDS011;8447;52.630;4.734;2024-02-21T12:44:24;4.83;;;4.33;;
16667;SDS011;8447;52.630;4.734;2024-02-21T12:46:50;8.77;;;4.80;;
16667;SDS011;8447;52.630;4.734;2024-02-21T12:49:19;7.43;;;5.20;;
16667;SDS011;8447;52.630;4.734;2024-02-21T12:51:45;5.43;;;4.93;;
16667;SDS011;8447;52.630;4.734;2024-02-21T12:54:12;5.87;;;4.53;;
16667;SDS011;8447;52.630;4.734;2024-02-21T12:56:40;6.77;;;5.37;;
16667;SDS011;8447;52.630;4.734;2024-02-21T12:59:06;6.40;;;5.07;;
16667;SDS011;8447;52.630;4.734;2024-02-21T13:01:34;6.93;;;4.33;;
16667;SDS011;8447;52.630;4.734;2024-02-21T13:04:00;4.50;;;4.10;;
16667;SDS011;8447;52.630;4.734;2024-02-21T13:06:27;8.97;;;5.20;;
16667;SDS011;8447;52.630;4.734;2024-02-21T13:08:53;7.63;;;4.33;;
16667;SDS011;8447;52.630;4.734;2024-02-21T13:11:19;5.13;;;4.40;;
16667;SDS011;8447;52.630;4.734;2024-02-21T13:13:47;4.73;;;4.23;;
16667;SDS011;8447;52.630;4.734;2024-02-21T13:16:13;6.87;;;5.10;;
16667;SDS011;8447;52.630;4.734;2024-02-21T13:18:40;4.57;;;4.10;;
16667;SDS011;8447;52.630;4.734;2024-02-21T13:21:08;4.97;;;4.40;;
16667;SDS011;8447;52.630;4.734;2024-02-21T13:23:34;4.67;;;4.20;;
16667;SDS011;8447;52.630;4.734;2024-02-21T13:26:00;7.17;;;4.67;;
16667;SDS011;8447;52.630;4.734;2024-02-21T13:28:27;5.17;;;3.87;;
16667;SDS011;8447;52.630;4.734;2024-02-21T13:30:55;6.67;;;2.90;;
16667;SDS011;8447;52.630;4.734;2024-02-21T13:33:22;3.30;;;3.00;;
16667;SDS011;8447;52.630;4.734;2024-02-21T13:35:48;4.33;;;3.93;;
16667;SDS011;8447;52.630;4.734;2024-02-21T13:38:15;4.10;;;2.70;;
16667;SDS011;8447;52.630;4.734;2024-02-21T13:40:43;3.93;;;3.03;;
16667;SDS011;8447;52.630;4.734;2024-02-21T13:43:10;4.87;;;2.57;;
16667;SDS011;8447;52.630;4.734;2024-02-21T13:45:36;4.93;;;2.93;;
16667;SDS011;8447;52.630;4.734;2024-02-21T13:48:05;4.83;;;2.90;;
16667;SDS011;8447;52.630;4.734;2024-02-21T13:50:35;4.17;;;2.70;;
16667;SDS011;8447;52.630;4.734;2024-02-21T13:53:07;4.63;;;2.57;;
16667;SDS011;8447;52.630;4.734;2024-02-21T13:55:34;3.37;;;3.07;;
16667;SDS011;8447;52.630;4.734;2024-02-21T13:58:00;3.80;;;2.63;;
16667;SDS011;8447;52.630;4.734;2024-02-21T14:00:28;2.80;;;2.40;;
16667;SDS011;8447;52.630;4.734;2024-02-21T14:02:54;6.87;;;2.70;;
16667;SDS011;8447;52.630;4.734;2024-02-21T14:05:24;3.53;;;2.40;;
16667;SDS011;8447;52.630;4.734;2024-02-21T14:07:50;5.13;;;3.70;;
16667;SDS011;8447;52.630;4.734;2024-02-21T14:10:19;4.30;;;3.07;;
16667;SDS011;8447;52.630;4.734;2024-02-21T14:12:46;3.93;;;3.13;;
16667;SDS011;8447;52.630;4.734;2024-02-21T14:15:12;6.50;;;3.67;;
16667;SDS011;8447;52.630;4.734;2024-02-21T14:17:39;4.70;;;3.27;;
16667;SDS011;8447;52.630;4.734;2024-02-21T14:20:06;5.63;;;3.60;;
16667;SDS011;8447;52.630;4.734;2024-02-21T14:22:34;5.60;;;3.10;;
16667;SDS011;8447;52.630;4.734;2024-02-21T14:25:02;5.23;;;3.80;;
16667;SDS011;8447;52.630;4.734;2024-02-21T14:27:30;7.43;;;4.43;;
16667;SDS011;8447;52.630;4.734;2024-02-21T14:29:56;5.47;;;3.07;;
16667;SDS011;8447;52.630;4.734;2024-02-21T14:32:23;5.17;;;3.87;;
16667;SDS011;8447;52.630;4.734;2024-02-21T14:34:49;9.17;;;4.80;;
16667;SDS011;8447;52.630;4.734;2024-02-21T14:37:15;5.70;;;3.93;;
16667;SDS011;8447;52.630;4.734;2024-02-21T14:39:43;7.73;;;4.53;;
16667;SDS011;8447;52.630;4.734;2024-02-21T14:42:10;5.57;;;4.10;;
16667;SDS011;8447;52.630;4.734;2024-02-21T14:44:36;7.17;;;5.50;;
16667;SDS011;8447;52.630;4.734;2024-02-21T14:47:02;7.83;;;5.17;;
16667;SDS011;8447;52.630;4.734;2024-02-21T14:49:29;6.17;;;4.33;;
16667;SDS011;8447;52.630;4.734;2024-02-21T14:51:55;6.43;;;4.60;;
16667;SDS011;8447;52.630;4.734;2024-02-21T14:54:22;3.53;;;2.97;;